• Join FlightAware (Why Join?)
  • Login
  • US Flag GB Flag 
10:03 EST


 

Airport Tracker/Info


-or-


 

Live Flight TrackerFlight Track Log ✈ AWE1940 ✈ 29-Jun-2013 ✈ KIAH - KCLT

Flight Track Log - Related Links

Times and Time Zones

All times are in EDT time to prevent confusion due to time zone crossing. See the AWE1940 flight status page for this flight to view local times or setup timezone preferences in your user account.

Time Position Orientation Groundspeed Altitude Reporting Facility
EDT Latitude Longitude Course Direction KTS MPH feet Rate Location/Type
18:37 29.9817 -95.3556 27° Northeast 177 204 700  Level Houston Center
18:38 30.0342 -95.3389 15° North 202 232 2,400 2,220 Climbing Houston Center
18:39 30.1050 -95.3261 North 270 311 5,300 2,820 Climbing Houston Center
18:40 30.3221 -95.1961 14° North  Level FlightAware Approximate
18:40 30.1758 -95.3164 North 265 305 8,300  Level Houston Center
18:41 30.4350 -95.1490 27° Northeast  Level FlightAware Approximate
18:41 30.2506 -95.3100 North 268 308 11,700  Level Houston Center
18:42 30.5427 -95.0870 23° Northeast  Level FlightAware Approximate
18:43 30.6481 -95.0212 27° Northeast  Level FlightAware Approximate
18:43 30.3261 -95.2647 27° Northeast 319 367 12,900  Level Houston Center
18:44 30.4086 -95.2033 33° Northeast 351 404 15,300 2,400 Climbing Houston Center
18:45 30.5014 -95.1364 32° Northeast 367 422 17,900 2,400 Climbing Houston Center
18:46 30.5925 -95.0725 31° Northeast 381 438 20,300 2,040 Climbing Houston Center
18:47 30.6900 -95.0128 28° Northeast 396 456 22,200 1,920 Climbing Houston Center
18:48 30.7881 -94.9506 29° Northeast 400 460 24,300 1,800 Climbing Houston Center
18:49 30.9086 -94.8758 28° Northeast 408 470 26,000 1,320 Climbing Houston Center
18:50 31.0139 -94.8100 28° Northeast 433 498 27,100 1,320 Climbing Houston Center
18:51 31.1189 -94.7431 29° Northeast 431 496 28,800 1,620 Climbing Houston Center
18:52 31.2339 -94.6683 29° Northeast 455 524 30,500 1,020 Climbing Houston Center
18:53 31.3261 -94.6031 31° Northeast 444 511 31,000 240 Climbing Houston Center
18:54 31.4553 -94.5147 30° Northeast 449 517 31,000  Level Houston Center
18:55 31.5506 -94.4172 41° Northeast 462 532 31,000  Level Houston Center
18:56 31.6139 -94.2847 61° Northeast 466 536 31,000  Level Houston Center
18:57 31.6767 -94.1511 61° Northeast 468 539 31,000  Level Houston Center
18:58 31.7411 -94.0178 60° Northeast 469 540 31,000  Level Houston Center
18:59 31.8036 -93.8850 61° Northeast 471 542 31,000  Level Houston Center
19:00 31.8672 -93.7500 61° Northeast 472 543 31,000  Level Houston Center
19:01 31.9314 -93.6128 61° Northeast 475 547 31,000  Level Houston Center
19:02 31.9956 -93.4781 61° Northeast 472 543 31,000  Level Houston Center
19:03 32.0972 -93.2594 61° Northeast 473 544 31,000  Level Houston Center
19:04 32.1608 -93.1214 61° Northeast 476 548 31,000  Level Houston Center
19:05 32.2242 -92.9850 61° Northeast 475 547 31,000  Level Houston Center
19:06 32.2881 -92.8464 61° Northeast 477 549 31,000  Level Houston Center
19:07 32.3514 -92.7089 61° Northeast 476 548 31,000  Level Houston Center
19:09 32.4103 -92.5825 61° Northeast 477 549 31,000  Level Houston Center
19:10 32.4722 -92.4431 62° Northeast 478 550 31,000  Level Houston Center
19:11 32.5475 -92.2767 62° Northeast 478 550 31,000  Level Houston Center
19:12 32.6458 -92.0647 61° Northeast 473 544 31,000  Level Memphis Center
19:13 32.7083 -91.9153 64° Northeast 459 528 31,000  Level Memphis Center
19:14 32.7703 -91.7778 62° Northeast 459 528 31,000  Level Memphis Center
19:15 32.8303 -91.6406 62° Northeast 464 534 31,000  Level Memphis Center
19:16 32.8922 -91.5003 62° Northeast 464 534 31,000  Level Memphis Center
19:17 32.9561 -91.3600 61° Northeast 469 540 31,000  Level Memphis Center
19:18 33.0175 -91.2219 62° Northeast 469 540 31,000  Level Memphis Center
19:19 33.0769 -91.0811 63° Northeast 469 540 31,000  Level Memphis Center
19:20 33.1383 -90.9403 62° Northeast 469 540 31,000  Level Memphis Center
19:21 33.1950 -90.8114 62° Northeast 474 545 31,000  Level Memphis Center
19:22 33.2581 -90.6678 62° Northeast 474 545 31,000  Level Memphis Center
19:23 33.3189 -90.5264 63° Northeast 468 539 31,000  Level Memphis Center
19:24 33.3797 -90.3847 63° Northeast 468 539 31,000  Level Memphis Center
19:25 33.4400 -90.2428 63° Northeast 468 539 31,000  Level Memphis Center
19:26 33.5003 -90.1006 63° Northeast 468 539 31,000  Level Memphis Center
19:27 33.5606 -89.9583 63° Northeast 468 539 31,000  Level Memphis Center
19:28 33.6225 -89.8158 62° Northeast 468 539 31,000  Level Memphis Center
19:29 33.6803 -89.6733 64° Northeast 468 539 31,000  Level Memphis Center
19:30 33.7419 -89.5303 63° Northeast 468 539 31,000  Level Memphis Center
19:31 33.8017 -89.3872 63° Northeast 468 539 31,000  Level Memphis Center
19:32 33.8628 -89.2239 66° East 474 545 31,000  Level Memphis Center
19:33 33.9239 -89.0756 64° Northeast 479 551 31,000  Level Memphis Center
19:34 33.9850 -88.9292 63° Northeast 484 557 31,000  Level Memphis Center
19:35 34.0458 -88.7903 62° Northeast 477 549 31,000  Level Memphis Center
19:36 34.1064 -88.6414 64° Northeast 472 543 31,000  Level Memphis Center
19:37 34.1669 -88.4944 63° Northeast 472 543 31,000  Level Memphis Center
19:38 34.2272 -88.3450 64° Northeast 472 543 31,000  Level Memphis Center
19:39 34.2875 -88.1953 64° Northeast 477 549 31,000  Level Memphis Center
19:40 34.3431 -88.0506 65° Northeast 497 572 31,000  Level Memphis Center
19:41 34.4031 -87.9028 64° Northeast 492 566 31,000  Level Memphis Center
19:42 34.4686 -87.7472 63° Northeast 492 566 31,000  Level Memphis Center
19:44 34.5792 -87.4725 64° Northeast 500 575 31,000  Level Atlanta Center
19:45 34.6375 -87.3183 65° Northeast 511 588 31,000  Level Atlanta Center
19:46 34.6981 -87.1614 65° Northeast 511 588 31,000  Level Atlanta Center
19:47 34.7581 -87.0069 65° Northeast 505 581 31,000  Level Atlanta Center
19:48 34.8181 -86.8522 65° Northeast 505 581 31,000  Level Atlanta Center
19:49 34.8781 -86.6947 65° Northeast 499 574 31,000  Level Atlanta Center
19:50 34.9375 -86.5394 65° Northeast 499 574 31,000  Level Atlanta Center
19:51 34.9992 -86.3817 64° Northeast 499 574 31,000  Level Atlanta Center
19:52 35.0561 -86.2258 66° East 499 574 31,000  Level Atlanta Center
19:53 35.1131 -86.0725 66° East 494 568 31,000  Level Atlanta Center
19:54 35.1719 -85.9139 66° East 499 574 31,000  Level Atlanta Center
19:55 35.2328 -85.7575 64° Northeast 499 574 31,000  Level Atlanta Center
19:56 35.2911 -85.5986 66° East 499 574 31,000  Level Atlanta Center
19:57 35.3494 -85.4392 66° East 499 574 31,000  Level Atlanta Center
19:58 35.4075 -85.2797 66° East 499 574 31,000  Level Atlanta Center
19:59 35.4675 -85.1200 65° Northeast 499 574 31,000  Level Atlanta Center
20:00 35.5250 -84.9575 66° East 504 580 31,000  Level Atlanta Center
20:01 35.5636 -84.7919 74° East 504 580 31,000  Level Atlanta Center
20:02 35.5856 -84.6158 81° East 504 580 31,000  Level Atlanta Center
20:03 35.6028 -84.4550 82° East 518 596 31,000  Level Atlanta Center
20:04 35.6219 -84.2814 82° East 518 596 31,000  Level Atlanta Center
20:05 35.6411 -84.1078 82° East 518 596 31,000 -60 Level Atlanta Center
20:06 35.6597 -83.9339 82° East 518 596 30,900 -600 Descending Atlanta Center
20:07 35.6803 -83.7600 82° East 518 596 29,900 -960 Descending Atlanta Center
20:08 35.6986 -83.5886 82° East 518 596 29,000 -480 Descending Atlanta Center
20:09 35.7167 -83.4147 83° East 518 596 29,000  Level Atlanta Center
20:10 35.7364 -83.2406 82° East 518 596 29,000 -420 Level Atlanta Center
20:11 35.7311 -83.0667 92° East 507 583 28,200 -900 Descending Atlanta Center
20:12 35.7172 -82.8981 96° East 507 583 27,300 -1,020 Descending Atlanta Center
20:13 35.7050 -82.7242 95° East 507 583 26,200 -1,140 Descending Atlanta Center
20:14 35.6925 -82.5403 95° East 492 566 25,100 -1,380 Descending Atlanta Center
20:15 35.6797 -82.3744 95° East 486 559 23,500 -2,220 Descending Atlanta Center
20:16 35.6650 -82.2136 96° East 481 554 20,700 -2,580 Descending Atlanta Center
20:17 35.6525 -82.0786 96° East 463 533 18,400 -2,820 Descending Atlanta Center
20:18 35.6336 -81.9436 100° East 422 486 15,600 -2,820 Descending Atlanta Center
20:19 35.5936 -81.8067 110° East 409 471 12,800 -2,160 Descending Atlanta Center
20:20 35.5353 -81.6986 124° Southeast 387 445 11,000 -960 Descending Atlanta Center
20:21 35.4856 -81.6081 124° Southeast 344 396 10,900 -900 Descending Atlanta Center
20:22 35.4647 -81.5119 105° East 290 334 9,200 -1,740 Descending Atlanta Center
20:22 35.4697 -81.4506 84° East 305 351 8,300 -1,200 Descending Atlanta Center
20:23 35.4731 -81.4069 85° East 297 342 8,000 -300 Descending Atlanta Center
20:23 35.4781 -81.3508 84° East 299 344 8,000  Level Atlanta Center
20:24 35.4844 -81.2614 85° East 280 322 8,000 -120 Level Atlanta Center
20:25 35.4856 -81.2178 88° East 272 313 7,900 -840 Descending Atlanta Center
20:26 35.4794 -81.1314 95° East 253 291 6,700 -1,320 Descending Atlanta Center
20:27 35.4672 -81.0553 101° East 236 272 5,300 -1,200 Descending Atlanta Center
20:27 35.4394 -81.0283 142° Southeast 211 243 4,900 -960 Descending Atlanta Center
20:28 35.4031 -80.9939 142° Southeast 179 206 4,000 -1,140 Descending Atlanta Center